Time;durP1;ratioP1;P1;durP2;ratioP2;P2;SDS_P1;SDS_P2;PMS_P1;PMS_P2;Temp;Humidity;BMP_temperature;BMP_pressure;BME280_temperature;BME280_humidity;BME280_pressure;Samples;Min_cycle;Max_cycle;Signal;HPM_P1;HPM_P2
2021/10/03 00:00:38;;;;;;;5.40;4.80;;;;;;;;;;5118080;28;20655;-62
2021/10/03 00:03:10;;;;;;;5.33;4.10;;;;;;;;;;5118073;28;20238;-62
2021/10/03 00:05:40;;;;;;;5.83;4.33;;;;;;;;;;5118203;28;20239;-62
2021/10/03 00:08:09;;;;;;;13.37;4.30;;;;;;;;;;5118159;28;20292;-62
2021/10/03 00:10:38;;;;;;;9.80;4.80;;;;;;;;;;5117927;28;20227;-62
2021/10/03 00:13:06;;;;;;;5.00;4.50;;;;;;;;;;5118387;28;20201;-62
2021/10/03 00:15:39;;;;;;;7.03;4.23;;;;;;;;;;5118082;28;20277;-62
2021/10/03 00:18:08;;;;;;;5.70;3.90;;;;;;;;;;5118404;28;20209;-62
2021/10/03 00:20:36;;;;;;;9.00;4.73;;;;;;;;;;5118971;28;20211;-62
2021/10/03 00:23:04;;;;;;;6.00;4.10;;;;;;;;;;5118259;28;20232;-62
2021/10/03 00:25:32;;;;;;;5.00;4.30;;;;;;;;;;5117546;28;20598;-62
2021/10/03 00:28:03;;;;;;;6.13;3.93;;;;;;;;;;5117970;28;20211;-62
2021/10/03 00:30:31;;;;;;;7.00;4.33;;;;;;;;;;5117820;28;20205;-62
2021/10/03 00:33:00;;;;;;;7.17;4.47;;;;;;;;;;5117980;28;20285;-62
2021/10/03 00:35:28;;;;;;;5.53;4.40;;;;;;;;;;5118106;28;20224;-62
2021/10/03 00:37:59;;;;;;;6.40;4.10;;;;;;;;;;5117754;28;20209;-62
2021/10/03 00:40:28;;;;;;;5.90;4.37;;;;;;;;;;5117717;28;20205;-62
2021/10/03 00:42:57;;;;;;;5.63;4.07;;;;;;;;;;5117861;28;20225;-62
2021/10/03 00:45:26;;;;;;;9.87;4.27;;;;;;;;;;5117135;28;20251;-62
2021/10/03 00:47:54;;;;;;;6.00;4.60;;;;;;;;;;5117951;28;20647;-62
2021/10/03 00:50:22;;;;;;;5.50;4.03;;;;;;;;;;5117424;28;20236;-62
2021/10/03 00:52:50;;;;;;;5.97;4.00;;;;;;;;;;5117461;28;20208;-62
2021/10/03 00:55:20;;;;;;;5.13;4.27;;;;;;;;;;5120438;28;20225;-62
2021/10/03 00:57:50;;;;;;;6.60;3.57;;;;;;;;;;5121640;28;21032;-62
2021/10/03 01:00:19;;;;;;;4.67;3.63;;;;;;;;;;5121289;28;20699;-62
2021/10/03 01:02:48;;;;;;;4.30;3.30;;;;;;;;;;5121227;27;20208;-62
2021/10/03 01:05:17;;;;;;;6.70;3.70;;;;;;;;;;5121267;28;20677;-62
2021/10/03 01:07:45;;;;;;;3.70;3.40;;;;;;;;;;5120994;28;20227;-62
2021/10/03 01:10:14;;;;;;;5.00;3.40;;;;;;;;;;5107965;28;20204;-62
2021/10/03 01:12:42;;;;;;;7.73;3.83;;;;;;;;;;5121233;28;20205;-62
2021/10/03 01:15:11;;;;;;;4.70;3.10;;;;;;;;;;5121007;28;20280;-62
2021/10/03 01:17:39;;;;;;;4.77;3.77;;;;;;;;;;5120917;28;20209;-62
2021/10/03 01:20:09;;;;;;;6.50;3.27;;;;;;;;;;5121170;28;20204;-62
2021/10/03 01:22:39;;;;;;;4.70;3.33;;;;;;;;;;5120668;28;20204;-62
2021/10/03 01:25:08;;;;;;;4.93;3.77;;;;;;;;;;5121253;28;20235;-62
2021/10/03 01:27:37;;;;;;;7.10;3.80;;;;;;;;;;5120680;28;20674;-62
2021/10/03 01:30:06;;;;;;;4.60;3.17;;;;;;;;;;5121002;28;20201;-62
2021/10/03 01:32:35;;;;;;;4.27;3.23;;;;;;;;;;5120888;28;20211;-62
2021/10/03 01:35:03;;;;;;;4.73;3.10;;;;;;;;;;5130862;27;20725;-62
2021/10/03 01:37:32;;;;;;;3.33;3.03;;;;;;;;;;5140971;27;20230;-62
2021/10/03 01:40:02;;;;;;;4.13;3.27;;;;;;;;;;5141200;27;20203;-62
2021/10/03 01:42:30;;;;;;;4.83;3.27;;;;;;;;;;5140989;27;20200;-62
2021/10/03 01:44:58;;;;;;;3.53;3.23;;;;;;;;;;5140511;27;20614;-62
2021/10/03 01:47:26;;;;;;;3.77;3.30;;;;;;;;;;5140773;27;20569;-62
2021/10/03 01:49:54;;;;;;;3.53;3.23;;;;;;;;;;5132452;27;20255;-62
2021/10/03 01:52:22;;;;;;;5.50;3.40;;;;;;;;;;5120245;28;20683;-62
2021/10/03 01:54:50;;;;;;;4.83;3.20;;;;;;;;;;5120411;28;20302;-62
2021/10/03 01:57:19;;;;;;;4.70;3.10;;;;;;;;;;5120591;28;20292;-62
2021/10/03 01:59:47;;;;;;;4.03;3.43;;;;;;;;;;5120539;28;20204;-62
2021/10/03 02:02:15;;;;;;;4.73;3.90;;;;;;;;;;5120125;27;20209;-62
2021/10/03 02:04:43;;;;;;;6.17;3.63;;;;;;;;;;5119955;27;20232;-62
2021/10/03 02:07:11;;;;;;;3.30;3.00;;;;;;;;;;5120721;28;20292;-62
2021/10/03 02:09:39;;;;;;;3.40;3.10;;;;;;;;;;5120477;28;20218;-62
2021/10/03 02:12:07;;;;;;;3.63;3.23;;;;;;;;;;5120573;28;20292;-62
2021/10/03 02:14:37;;;;;;;8.83;3.43;;;;;;;;;;5120023;28;20217;-62
2021/10/03 02:17:06;;;;;;;3.03;2.60;;;;;;;;;;5120286;28;20207;-62
2021/10/03 02:19:34;;;;;;;5.37;4.33;;;;;;;;;;5119991;28;20218;-62
2021/10/03 02:22:02;;;;;;;6.00;3.20;;;;;;;;;;5119944;28;20204;-62
2021/10/03 02:24:30;;;;;;;6.43;3.20;;;;;;;;;;5119671;28;20225;-62
2021/10/03 02:26:58;;;;;;;4.60;3.23;;;;;;;;;;5119642;28;20205;-62
2021/10/03 02:29:26;;;;;;;4.67;3.23;;;;;;;;;;5119770;28;20306;-62
2021/10/03 02:31:58;;;;;;;6.10;3.70;;;;;;;;;;5119683;28;20209;-62
2021/10/03 02:34:26;;;;;;;9.17;3.27;;;;;;;;;;5119336;28;20229;-62
2021/10/03 02:36:54;;;;;;;4.97;2.97;;;;;;;;;;5119348;28;20200;-62
2021/10/03 02:39:22;;;;;;;6.40;3.07;;;;;;;;;;5119144;28;20575;-62
2021/10/03 02:41:50;;;;;;;5.23;3.17;;;;;;;;;;5119439;28;20230;-62
2021/10/03 02:44:19;;;;;;;4.77;3.13;;;;;;;;;;5118912;28;20228;-62
2021/10/03 02:46:46;;;;;;;5.27;3.27;;;;;;;;;;5118562;28;20205;-62
2021/10/03 02:49:16;;;;;;;3.53;3.17;;;;;;;;;;5119284;28;20209;-62
2021/10/03 02:51:44;;;;;;;3.73;2.90;;;;;;;;;;5118876;28;20576;-62
2021/10/03 02:54:12;;;;;;;4.43;3.07;;;;;;;;;;5119555;28;20231;-62
2021/10/03 02:56:40;;;;;;;4.70;3.07;;;;;;;;;;5119336;28;20204;-62
2021/10/03 02:59:08;;;;;;;3.03;2.77;;;;;;;;;;5119209;28;20233;-62
2021/10/03 03:01:36;;;;;;;4.50;3.23;;;;;;;;;;5118885;28;20215;-62
2021/10/03 03:04:04;;;;;;;3.60;3.03;;;;;;;;;;5119672;28;20256;-62
2021/10/03 03:06:34;;;;;;;4.43;3.60;;;;;;;;;;5119171;28;20216;-62
2021/10/03 03:09:02;;;;;;;4.63;3.07;;;;;;;;;;5118590;28;20571;-62
2021/10/03 03:11:30;;;;;;;6.00;2.63;;;;;;;;;;5118953;28;20216;-62
2021/10/03 03:13:58;;;;;;;4.67;2.97;;;;;;;;;;5118714;28;20228;-62
2021/10/03 03:16:26;;;;;;;2.80;2.50;;;;;;;;;;5117759;28;20201;-62
2021/10/03 03:18:54;;;;;;;9.07;2.77;;;;;;;;;;5118689;28;20204;-62
2021/10/03 03:21:22;;;;;;;3.83;3.10;;;;;;;;;;5118602;28;20578;-62
2021/10/03 03:23:51;;;;;;;3.37;2.90;;;;;;;;;;5118564;28;20315;-62
2021/10/03 03:26:19;;;;;;;3.57;3.00;;;;;;;;;;5123573;27;20224;-62
2021/10/03 03:28:47;;;;;;;4.30;2.80;;;;;;;;;;5118821;28;20219;-62
2021/10/03 03:31:15;;;;;;;3.70;3.07;;;;;;;;;;5118419;28;20219;-63
2021/10/03 03:33:43;;;;;;;5.47;3.53;;;;;;;;;;5118379;28;20208;-62
2021/10/03 03:36:11;;;;;;;3.80;3.10;;;;;;;;;;5118943;28;20204;-62
2021/10/03 03:38:39;;;;;;;7.23;3.00;;;;;;;;;;5118376;28;20208;-62
2021/10/03 03:41:09;;;;;;;3.00;2.70;;;;;;;;;;5104631;28;20208;-62
2021/10/03 03:43:37;;;;;;;3.80;2.77;;;;;;;;;;5118401;28;20201;-62
2021/10/03 03:46:05;;;;;;;4.97;3.53;;;;;;;;;;5117725;28;20230;-62
2021/10/03 03:48:33;;;;;;;4.60;3.00;;;;;;;;;;5118242;28;20204;-62
2021/10/03 03:51:03;;;;;;;4.63;3.07;;;;;;;;;;5118115;28;20243;-61
2021/10/03 03:53:31;;;;;;;3.73;2.83;;;;;;;;;;5118008;28;20571;-60
2021/10/03 03:55:59;;;;;;;4.07;2.73;;;;;;;;;;5118422;28;20197;-62
2021/10/03 03:58:29;;;;;;;3.70;2.63;;;;;;;;;;5118289;28;20211;-62
2021/10/03 04:00:57;;;;;;;5.13;3.30;;;;;;;;;;5118054;28;20288;-60
2021/10/03 04:03:25;;;;;;;5.93;3.07;;;;;;;;;;5117920;28;20220;-61
2021/10/03 04:05:53;;;;;;;4.57;2.80;;;;;;;;;;5118626;28;20228;-61
2021/10/03 04:08:23;;;;;;;4.03;2.87;;;;;;;;;;5118311;28;20205;-62
2021/10/03 04:10:51;;;;;;;4.50;3.13;;;;;;;;;;5118115;28;20725;-60
2021/10/03 04:13:19;;;;;;;3.30;2.23;;;;;;;;;;5118145;28;20200;-60
2021/10/03 04:15:48;;;;;;;5.67;3.63;;;;;;;;;;5117911;28;20231;-60
2021/10/03 04:18:17;;;;;;;4.97;3.60;;;;;;;;;;5117819;28;20246;-62
2021/10/03 04:20:45;;;;;;;6.87;3.33;;;;;;;;;;5118055;28;20208;-62
2021/10/03 04:23:13;;;;;;;4.03;3.50;;;;;;;;;;5117958;28;20205;-62
2021/10/03 04:25:41;;;;;;;3.00;2.70;;;;;;;;;;5117310;28;20232;-60
2021/10/03 04:28:10;;;;;;;4.10;2.97;;;;;;;;;;5106154;28;20205;-61
2021/10/03 04:30:38;;;;;;;4.83;3.17;;;;;;;;;;5121588;28;20561;-61
2021/10/03 04:33:07;;;;;;;3.10;2.80;;;;;;;;;;5121743;28;20208;-60
2021/10/03 04:35:35;;;;;;;7.07;3.20;;;;;;;;;;5121740;27;20221;-63
2021/10/03 04:38:03;;;;;;;4.37;2.87;;;;;;;;;;5122051;28;20268;-63
2021/10/03 04:40:31;;;;;;;4.20;3.10;;;;;;;;;;5122288;27;20208;-63
2021/10/03 04:42:59;;;;;;;4.00;3.10;;;;;;;;;;5122753;28;20215;-63
2021/10/03 04:45:27;;;;;;;4.93;3.20;;;;;;;;;;5121542;28;20250;-62
2021/10/03 04:47:55;;;;;;;4.27;2.80;;;;;;;;;;5121724;28;20208;-62
2021/10/03 04:50:25;;;;;;;4.77;2.87;;;;;;;;;;5121245;28;20240;-62
2021/10/03 04:52:53;;;;;;;3.87;2.80;;;;;;;;;;5121722;28;20201;-62
2021/10/03 04:55:20;;;;;;;4.73;2.80;;;;;;;;;;5121494;28;20220;-62
2021/10/03 04:57:49;;;;;;;6.67;3.13;;;;;;;;;;5121735;28;20204;-62
2021/10/03 05:00:17;;;;;;;6.77;2.93;;;;;;;;;;5121206;28;20204;-62
2021/10/03 05:02:45;;;;;;;3.63;2.87;;;;;;;;;;5121185;28;20660;-62
2021/10/03 05:05:14;;;;;;;6.13;2.73;;;;;;;;;;5121391;28;20231;-62
2021/10/03 05:07:43;;;;;;;4.43;2.53;;;;;;;;;;5121259;28;20575;-60
2021/10/03 05:10:11;;;;;;;8.60;3.07;;;;;;;;;;5121560;28;20212;-60
2021/10/03 05:12:39;;;;;;;5.40;2.80;;;;;;;;;;5121915;28;20205;-60
2021/10/03 05:15:07;;;;;;;4.57;2.57;;;;;;;;;;5120757;28;20697;-62
2021/10/03 05:17:35;;;;;;;7.67;2.70;;;;;;;;;;5121137;28;20205;-62
2021/10/03 05:20:03;;;;;;;3.43;2.93;;;;;;;;;;5121077;28;20215;-60
2021/10/03 05:22:31;;;;;;;4.13;2.80;;;;;;;;;;5120916;28;20258;-62
2021/10/03 05:25:01;;;;;;;3.87;3.10;;;;;;;;;;5120685;28;20224;-63
2021/10/03 05:27:29;;;;;;;4.33;2.70;;;;;;;;;;5120882;28;20256;-60
2021/10/03 05:29:57;;;;;;;4.30;3.13;;;;;;;;;;5120573;28;20213;-60
2021/10/03 05:32:25;;;;;;;5.97;2.70;;;;;;;;;;5120463;28;20235;-60
2021/10/03 05:34:53;;;;;;;4.37;3.23;;;;;;;;;;5120983;28;20231;-60
2021/10/03 05:37:21;;;;;;;4.20;2.90;;;;;;;;;;5120596;28;20627;-61
2021/10/03 05:39:48;;;;;;;3.93;2.63;;;;;;;;;;5120300;28;20213;-61
2021/10/03 05:42:18;;;;;;;3.63;2.90;;;;;;;;;;5120468;27;20681;-61
2021/10/03 05:44:46;;;;;;;4.87;3.10;;;;;;;;;;5120001;28;20245;-65
2021/10/03 05:47:14;;;;;;;6.13;2.60;;;;;;;;;;5120367;28;20240;-63
2021/10/03 05:49:42;;;;;;;6.23;2.90;;;;;;;;;;5120251;27;20211;-61
2021/10/03 05:52:10;;;;;;;3.30;2.77;;;;;;;;;;5120662;28;20209;-62
2021/10/03 05:54:38;;;;;;;4.17;2.60;;;;;;;;;;5120536;28;20316;-63
2021/10/03 05:57:06;;;;;;;4.33;2.33;;;;;;;;;;5120493;28;20201;-60
2021/10/03 05:59:35;;;;;;;3.30;3.00;;;;;;;;;;5119926;28;20211;-60
2021/10/03 06:02:03;;;;;;;3.60;2.60;;;;;;;;;;5120976;27;20674;-61
2021/10/03 06:04:31;;;;;;;2.90;2.60;;;;;;;;;;5119693;28;20224;-60
2021/10/03 06:06:59;;;;;;;4.47;2.97;;;;;;;;;;5121278;27;20216;-60
2021/10/03 06:09:27;;;;;;;3.80;2.60;;;;;;;;;;5119662;28;20209;-60
2021/10/03 06:11:55;;;;;;;4.13;3.00;;;;;;;;;;5120226;27;20211;-62
2021/10/03 06:14:23;;;;;;;4.63;2.77;;;;;;;;;;5119601;28;20217;-62
2021/10/03 06:16:53;;;;;;;3.07;2.77;;;;;;;;;;5120127;27;20262;-61
2021/10/03 06:19:21;;;;;;;3.63;2.67;;;;;;;;;;5117582;27;20207;-60
2021/10/03 06:21:49;;;;;;;4.93;3.13;;;;;;;;;;5120943;27;20197;-60
2021/10/03 06:24:18;;;;;;;5.37;3.10;;;;;;;;;;5119691;28;20212;-60
2021/10/03 06:26:47;;;;;;;4.87;3.13;;;;;;;;;;5116411;28;20741;-61
2021/10/03 06:29:16;;;;;;;5.33;2.87;;;;;;;;;;5121234;27;20197;-61
2021/10/03 06:31:44;;;;;;;4.97;3.00;;;;;;;;;;5118762;27;20287;-62
2021/10/03 06:34:13;;;;;;;5.63;2.67;;;;;;;;;;5120102;27;20688;-60
2021/10/03 06:36:42;;;;;;;3.67;3.20;;;;;;;;;;5118524;27;20200;-61
2021/10/03 06:39:09;;;;;;;4.43;3.10;;;;;;;;;;5120751;27;20200;-62
2021/10/03 06:41:37;;;;;;;4.20;3.20;;;;;;;;;;5118806;28;20223;-63
2021/10/03 06:44:06;;;;;;;4.20;3.07;;;;;;;;;;5121533;27;20247;-63
2021/10/03 06:46:34;;;;;;;5.73;3.30;;;;;;;;;;5119274;27;20680;-63
2021/10/03 06:49:02;;;;;;;3.80;2.87;;;;;;;;;;5120851;27;20197;-62
2021/10/03 06:51:32;;;;;;;4.27;2.80;;;;;;;;;;5118933;28;20233;-60
2021/10/03 06:54:00;;;;;;;3.97;2.67;;;;;;;;;;5120139;28;20220;-62
2021/10/03 06:56:28;;;;;;;3.37;3.07;;;;;;;;;;5119713;28;20224;-60
2021/10/03 06:58:56;;;;;;;5.37;2.97;;;;;;;;;;5119615;28;20205;-64
2021/10/03 07:01:24;;;;;;;3.20;2.70;;;;;;;;;;5119007;28;20576;-60
2021/10/03 07:03:52;;;;;;;2.43;2.07;;;;;;;;;;5119704;28;20308;-60
2021/10/03 07:06:20;;;;;;;4.90;3.53;;;;;;;;;;5119445;28;20209;-60
2021/10/03 07:08:49;;;;;;;4.00;2.60;;;;;;;;;;5119419;28;20211;-59
2021/10/03 07:11:17;;;;;;;3.40;2.90;;;;;;;;;;5120892;27;20210;-61
2021/10/03 07:13:45;;;;;;;3.77;2.90;;;;;;;;;;5139513;27;20209;-61
2021/10/03 07:16:15;;;;;;;3.97;2.80;;;;;;;;;;5139143;27;20215;-61
2021/10/03 07:18:43;;;;;;;3.43;2.67;;;;;;;;;;5139680;27;20208;-60
2021/10/03 07:21:11;;;;;;;4.73;2.60;;;;;;;;;;5139554;27;20208;-61
2021/10/03 07:23:39;;;;;;;4.73;2.83;;;;;;;;;;5139197;27;20204;-60
2021/10/03 07:26:11;;;;;;;3.83;2.90;;;;;;;;;;5120023;27;20211;-60
2021/10/03 07:28:39;;;;;;;3.73;3.00;;;;;;;;;;5118643;28;20231;-60
2021/10/03 07:31:07;;;;;;;4.83;3.60;;;;;;;;;;5117528;28;20296;-60
2021/10/03 07:33:35;;;;;;;2.50;2.30;;;;;;;;;;5106923;28;20200;-60
2021/10/03 07:36:03;;;;;;;5.93;2.80;;;;;;;;;;5107132;28;20202;-62
2021/10/03 07:38:31;;;;;;;3.43;2.90;;;;;;;;;;5106362;28;20197;-60
2021/10/03 07:40:59;;;;;;;4.80;2.87;;;;;;;;;;5104529;28;20269;-60
2021/10/03 07:43:29;;;;;;;6.40;2.57;;;;;;;;;;5105689;28;20283;-60
2021/10/03 07:45:57;;;;;;;3.83;3.23;;;;;;;;;;5103956;28;20285;-60
2021/10/03 07:48:25;;;;;;;3.27;2.93;;;;;;;;;;5106556;28;20304;-61
2021/10/03 07:50:55;;;;;;;3.80;2.87;;;;;;;;;;5106494;28;20229;-60
2021/10/03 07:53:23;;;;;;;6.20;2.93;;;;;;;;;;5106750;28;20260;-62
2021/10/03 07:55:51;;;;;;;5.00;3.10;;;;;;;;;;5103960;28;20616;-61
2021/10/03 07:58:19;;;;;;;3.87;2.90;;;;;;;;;;5105344;28;20204;-61
2021/10/03 08:00:49;;;;;;;3.10;2.57;;;;;;;;;;5105917;28;20209;-61
2021/10/03 08:03:17;;;;;;;3.33;2.90;;;;;;;;;;5104694;28;20197;-62
2021/10/03 08:05:46;;;;;;;5.50;3.07;;;;;;;;;;5106137;28;20228;-60
2021/10/03 08:08:14;;;;;;;4.23;3.10;;;;;;;;;;5103773;28;20584;-60
2021/10/03 08:10:42;;;;;;;3.47;2.70;;;;;;;;;;5106544;28;20200;-60
2021/10/03 08:13:12;;;;;;;3.63;2.67;;;;;;;;;;5106348;28;20194;-60
2021/10/03 08:15:41;;;;;;;3.17;2.87;;;;;;;;;;5105919;28;20300;-60
2021/10/03 08:18:11;;;;;;;3.43;2.90;;;;;;;;;;5106293;28;20210;-60
2021/10/03 08:20:41;;;;;;;3.67;2.40;;;;;;;;;;5106703;28;20205;-61
2021/10/03 08:23:10;;;;;;;5.10;2.87;;;;;;;;;;5103983;28;20235;-60
2021/10/03 08:25:39;;;;;;;4.07;3.10;;;;;;;;;;5107263;28;20221;-60
2021/10/03 08:28:07;;;;;;;4.80;4.20;;;;;;;;;;5106298;28;20218;-61
2021/10/03 08:30:35;;;;;;;3.23;2.70;;;;;;;;;;5114706;28;20300;-59
2021/10/03 08:33:03;;;;;;;9.20;4.70;;;;;;;;;;5100283;28;20201;-59
2021/10/03 08:35:34;;;;;;;3.27;2.63;;;;;;;;;;5100598;28;20692;-64
2021/10/03 08:38:02;;;;;;;4.20;3.30;;;;;;;;;;5101384;28;20277;-64
2021/10/03 08:40:30;;;;;;;4.43;3.00;;;;;;;;;;5099433;28;20204;-63
2021/10/03 08:42:58;;;;;;;5.33;2.80;;;;;;;;;;5105587;28;20657;-63
2021/10/03 08:45:26;;;;;;;4.03;3.03;;;;;;;;;;5117048;28;20221;-63
2021/10/03 08:47:54;;;;;;;5.07;3.57;;;;;;;;;;5110592;28;20225;-62
2021/10/03 08:50:23;;;;;;;10.90;3.67;;;;;;;;;;5105652;28;20225;-63
2021/10/03 08:52:53;;;;;;;3.90;3.00;;;;;;;;;;5100180;28;20280;-61
2021/10/03 08:55:21;;;;;;;3.83;2.80;;;;;;;;;;5105726;28;20220;-62
2021/10/03 08:57:49;;;;;;;3.97;2.90;;;;;;;;;;5117664;28;20284;-62
2021/10/03 09:00:19;;;;;;;4.07;2.43;;;;;;;;;;5117328;28;20211;-64
2021/10/03 09:02:54;;;;;;;5.37;2.90;;;;;;;;;;5117476;28;20201;-64
2021/10/03 09:05:23;;;;;;;5.17;3.17;;;;;;;;;;5137377;28;20311;-62
2021/10/03 09:08:00;;;;;;;4.47;3.10;;;;;;;;;;5138219;27;20220;-62
2021/10/03 09:10:28;;;;;;;3.80;2.93;;;;;;;;;;5137816;27;20204;-62
2021/10/03 09:12:56;;;;;;;3.10;2.80;;;;;;;;;;5138220;27;20203;-63
2021/10/03 09:15:25;;;;;;;4.60;2.93;;;;;;;;;;5139439;27;20224;-62
2021/10/03 09:17:54;;;;;;;5.20;3.23;;;;;;;;;;5142254;27;20291;-62
2021/10/03 09:20:23;;;;;;;4.13;2.97;;;;;;;;;;5141334;27;20563;-62
2021/10/03 09:23:04;;;;;;;5.00;2.63;;;;;;;;;;5141538;27;20283;-62
2021/10/03 09:25:36;;;;;;;7.37;3.17;;;;;;;;;;5127837;27;20225;-62
2021/10/03 09:28:05;;;;;;;3.63;3.17;;;;;;;;;;5120727;28;20692;-62
2021/10/03 09:30:35;;;;;;;3.57;2.60;;;;;;;;;;5120723;28;20214;-63
2021/10/03 09:33:03;;;;;;;7.00;3.47;;;;;;;;;;5112379;28;20220;-63
2021/10/03 09:35:33;;;;;;;4.67;3.37;;;;;;;;;;5108661;28;20232;-63
2021/10/03 09:38:10;;;;;;;3.27;2.97;;;;;;;;;;5106983;28;20660;-62
2021/10/03 09:40:38;;;;;;;4.13;2.93;;;;;;;;;;5108433;28;20206;-62
2021/10/03 09:43:06;;;;;;;3.93;3.20;;;;;;;;;;5107669;28;20205;-63
2021/10/03 09:45:34;;;;;;;3.50;2.80;;;;;;;;;;5105464;28;20218;-63
2021/10/03 09:48:04;;;;;;;3.70;3.30;;;;;;;;;;5108050;28;20223;-64
2021/10/03 09:50:32;;;;;;;4.63;2.90;;;;;;;;;;5112888;28;20238;-63
2021/10/03 09:53:00;;;;;;;4.63;2.97;;;;;;;;;;5108105;28;20235;-63
2021/10/03 09:55:30;;;;;;;7.30;3.17;;;;;;;;;;5107945;28;20220;-63
2021/10/03 09:57:58;;;;;;;5.37;2.83;;;;;;;;;;5106653;28;20198;-63
2021/10/03 10:00:29;;;;;;;3.43;2.80;;;;;;;;;;5106782;28;20264;-63
2021/10/03 10:02:57;;;;;;;3.20;2.53;;;;;;;;;;5104638;28;20639;-64
2021/10/03 10:05:27;;;;;;;5.17;3.03;;;;;;;;;;5107007;28;20217;-63
2021/10/03 10:07:56;;;;;;;4.30;3.00;;;;;;;;;;5109323;28;20234;-62
2021/10/03 10:10:25;;;;;;;5.70;2.93;;;;;;;;;;5107924;28;20193;-62
2021/10/03 10:12:56;;;;;;;5.17;2.97;;;;;;;;;;5109328;28;20204;-63
2021/10/03 10:15:25;;;;;;;4.87;3.20;;;;;;;;;;5105590;28;20215;-63
2021/10/03 10:17:53;;;;;;;3.67;2.97;;;;;;;;;;5111010;28;20216;-63
2021/10/03 10:20:38;;;;;;;3.23;2.70;;;;;;;;;;5107254;28;20207;-63
2021/10/03 10:23:08;;;;;;;3.73;2.40;;;;;;;;;;5106387;28;20267;-62
2021/10/03 10:25:54;;;;;;;3.93;2.53;;;;;;;;;;5110373;28;20218;-61
2021/10/03 10:28:35;;;;;;;5.03;3.00;;;;;;;;;;5103413;28;20605;-61
2021/10/03 10:31:06;;;;;;;3.93;2.97;;;;;;;;;;5108020;28;20561;-61
2021/10/03 10:34:08;;;;;;;4.30;2.37;;;;;;;;;;5106200;28;20274;-61
2021/10/03 10:36:38;;;;;;;3.97;2.60;;;;;;;;;;5046600;28;20267;-62
2021/10/03 10:39:21;;;;;;;4.87;2.63;;;;;;;;;;5045749;28;20245;-60
2021/10/03 10:41:49;;;;;;;3.97;2.60;;;;;;;;;;5078680;27;20305;-62
2021/10/03 10:44:30;;;;;;;2.50;2.30;;;;;;;;;;5107579;28;20226;-62
2021/10/03 10:46:58;;;;;;;3.80;2.60;;;;;;;;;;5108360;28;20262;-62
2021/10/03 10:49:35;;;;;;;4.13;2.50;;;;;;;;;;5109565;28;20213;-61
2021/10/03 10:52:22;;;;;;;3.83;2.57;;;;;;;;;;5107911;28;20196;-61
2021/10/03 10:55:06;;;;;;;3.93;2.60;;;;;;;;;;5107567;28;20298;-61
2021/10/03 10:57:34;;;;;;;3.87;2.67;;;;;;;;;;5102776;28;20288;-61
2021/10/03 11:00:20;;;;;;;3.77;2.90;;;;;;;;;;5107157;28;20199;-62
2021/10/03 11:02:48;;;;;;;4.23;2.43;;;;;;;;;;5108288;28;20273;-62
2021/10/03 11:05:44;;;;;;;6.27;2.43;;;;;;;;;;5107898;28;20219;-63
2021/10/03 11:08:13;;;;;;;5.23;3.00;;;;;;;;;;5083344;28;20594;-62
2021/10/03 11:10:56;;;;;;;4.43;2.83;;;;;;;;;;5106296;28;20641;-63
2021/10/03 11:13:39;;;;;;;4.80;2.67;;;;;;;;;;5105403;28;20282;-62
2021/10/03 11:16:22;;;;;;;4.30;3.00;;;;;;;;;;5107165;28;20699;-62
2021/10/03 11:18:51;;;;;;;4.47;3.10;;;;;;;;;;5106144;28;20207;-63
2021/10/03 11:21:24;;;;;;;4.50;2.60;;;;;;;;;;5106200;28;20304;-63
2021/10/03 11:23:52;;;;;;;3.87;2.60;;;;;;;;;;5105499;28;20229;-63
2021/10/03 11:26:22;;;;;;;4.80;2.90;;;;;;;;;;5105491;28;20206;-63
2021/10/03 11:28:53;;;;;;;4.87;3.27;;;;;;;;;;5107238;28;20228;-63
2021/10/03 11:31:40;;;;;;;4.33;2.87;;;;;;;;;;5102521;28;20232;-63
2021/10/03 11:34:09;;;;;;;4.70;2.73;;;;;;;;;;5105487;28;20679;-62
2021/10/03 11:36:47;;;;;;;5.73;3.03;;;;;;;;;;5105088;28;20206;-61
2021/10/03 11:39:15;;;;;;;4.67;3.47;;;;;;;;;;5101625;28;20226;-64
2021/10/03 11:41:47;;;;;;;4.00;2.60;;;;;;;;;;5105672;28;20197;-61
2021/10/03 11:44:19;;;;;;;4.23;2.80;;;;;;;;;;5103666;28;20220;-62
2021/10/03 11:46:56;;;;;;;5.67;2.80;;;;;;;;;;5105012;28;20205;-62
2021/10/03 11:49:25;;;;;;;3.27;2.53;;;;;;;;;;5106209;28;20220;-62
2021/10/03 11:51:53;;;;;;;4.67;2.73;;;;;;;;;;5105848;28;20343;-63
2021/10/03 11:54:29;;;;;;;6.80;4.13;;;;;;;;;;5105446;28;20751;-63
2021/10/03 11:56:57;;;;;;;4.77;2.90;;;;;;;;;;5105808;28;20202;-62
2021/10/03 11:59:25;;;;;;;4.07;3.40;;;;;;;;;;5101724;28;20200;-63
2021/10/03 12:01:53;;;;;;;3.47;3.13;;;;;;;;;;5106317;28;20203;-62
2021/10/03 12:04:29;;;;;;;4.00;3.03;;;;;;;;;;5106660;28;20263;-62
2021/10/03 12:06:57;;;;;;;5.03;2.97;;;;;;;;;;5103965;28;20209;-62
2021/10/03 12:09:27;;;;;;;3.53;2.53;;;;;;;;;;5105000;28;20711;-62
2021/10/03 12:11:57;;;;;;;3.37;2.87;;;;;;;;;;5112460;28;20223;-62
2021/10/03 12:14:25;;;;;;;4.30;3.20;;;;;;;;;;5118110;28;20320;-64
2021/10/03 12:16:53;;;;;;;4.67;3.33;;;;;;;;;;5118514;28;20208;-62
2021/10/03 12:19:21;;;;;;;5.03;3.37;;;;;;;;;;5118563;28;20206;-63
2021/10/03 12:21:51;;;;;;;5.60;3.33;;;;;;;;;;5118159;28;20212;-62
2021/10/03 12:24:19;;;;;;;6.73;3.10;;;;;;;;;;5117977;28;20301;-61
2021/10/03 12:26:49;;;;;;;5.67;3.37;;;;;;;;;;5117798;28;20213;-61
2021/10/03 12:29:22;;;;;;;3.67;3.07;;;;;;;;;;5117498;28;20252;-61
2021/10/03 12:31:52;;;;;;;3.97;3.57;;;;;;;;;;5117603;28;20226;-62
2021/10/03 12:34:40;;;;;;;10.67;3.63;;;;;;;;;;5117979;28;20227;-61
2021/10/03 12:37:32;;;;;;;4.37;3.70;;;;;;;;;;5117665;28;20204;-60
2021/10/03 12:40:03;;;;;;;3.37;3.07;;;;;;;;;;5118049;28;20204;-61
2021/10/03 12:42:31;;;;;;;5.90;3.80;;;;;;;;;;5117768;28;20286;-63
2021/10/03 12:45:00;;;;;;;4.73;3.87;;;;;;;;;;5117305;28;20231;-62
2021/10/03 12:47:28;;;;;;;5.13;3.87;;;;;;;;;;5117544;28;20293;-62
2021/10/03 12:49:57;;;;;;;5.63;3.50;;;;;;;;;;5117959;28;20716;-62
2021/10/03 12:52:24;;;;;;;5.43;3.43;;;;;;;;;;5108106;28;20212;-61
2021/10/03 12:54:55;;;;;;;4.90;3.93;;;;;;;;;;5121532;28;20234;-61
2021/10/03 12:57:23;;;;;;;8.07;4.43;;;;;;;;;;5115149;27;20571;-60
2021/10/03 12:59:51;;;;;;;4.43;3.40;;;;;;;;;;5108379;28;20198;-61
2021/10/03 13:02:19;;;;;;;7.27;4.20;;;;;;;;;;5107948;28;20207;-60
2021/10/03 13:05:08;;;;;;;4.40;3.90;;;;;;;;;;5110924;28;20223;-63
2021/10/03 13:07:36;;;;;;;6.43;3.80;;;;;;;;;;5109639;28;20206;-61
2021/10/03 13:10:06;;;;;;;6.17;4.00;;;;;;;;;;5106367;28;20231;-61
2021/10/03 13:12:34;;;;;;;6.07;4.07;;;;;;;;;;5107218;28;20560;-61
2021/10/03 13:15:02;;;;;;;4.83;4.07;;;;;;;;;;5111728;28;20600;-61
2021/10/03 13:17:30;;;;;;;6.37;4.23;;;;;;;;;;5120982;28;20336;-61
2021/10/03 13:19:58;;;;;;;4.97;3.60;;;;;;;;;;5109062;28;20289;-62
2021/10/03 13:22:26;;;;;;;6.93;4.27;;;;;;;;;;5107931;28;20207;-60
2021/10/03 13:24:54;;;;;;;5.20;4.60;;;;;;;;;;5105262;28;20240;-61
2021/10/03 13:27:24;;;;;;;4.87;3.93;;;;;;;;;;5112721;28;20710;-60
2021/10/03 13:29:52;;;;;;;5.47;4.13;;;;;;;;;;5105472;28;20587;-61
2021/10/03 13:32:20;;;;;;;6.93;4.20;;;;;;;;;;5107640;28;20575;-60
2021/10/03 13:34:48;;;;;;;6.60;4.23;;;;;;;;;;5106896;28;20236;-62
2021/10/03 13:37:16;;;;;;;6.83;5.13;;;;;;;;;;5108187;28;20567;-61
2021/10/03 13:39:44;;;;;;;6.60;4.43;;;;;;;;;;5106967;28;20198;-65
2021/10/03 13:42:12;;;;;;;11.30;5.70;;;;;;;;;;5107173;28;20199;-64
2021/10/03 13:44:41;;;;;;;6.17;4.60;;;;;;;;;;5120183;28;20626;-59
2021/10/03 13:47:10;;;;;;;4.53;4.13;;;;;;;;;;5121380;28;20237;-60
2021/10/03 13:49:38;;;;;;;6.03;4.70;;;;;;;;;;5120895;27;20270;-60
2021/10/03 13:52:06;;;;;;;6.17;4.80;;;;;;;;;;5114896;27;20213;-60
2021/10/03 13:54:34;;;;;;;6.83;6.07;;;;;;;;;;5114699;28;20221;-61
2021/10/03 13:57:02;;;;;;;8.20;5.33;;;;;;;;;;5118480;28;20204;-62
2021/10/03 13:59:30;;;;;;;4.53;3.50;;;;;;;;;;5117762;28;20210;-62
2021/10/03 14:01:59;;;;;;;4.27;2.77;;;;;;;;;;5118597;28;20215;-62
2021/10/03 14:04:27;;;;;;;2.77;2.57;;;;;;;;;;5119652;28;20232;-61
2021/10/03 14:06:55;;;;;;;3.37;2.33;;;;;;;;;;5119955;28;20201;-63
2021/10/03 14:09:23;;;;;;;1.80;1.60;;;;;;;;;;5119395;28;20582;-62
2021/10/03 14:11:51;;;;;;;1.97;1.60;;;;;;;;;;5120057;28;20315;-62
2021/10/03 14:14:19;;;;;;;2.03;1.83;;;;;;;;;;5119622;28;20224;-63
2021/10/03 14:16:47;;;;;;;3.00;1.70;;;;;;;;;;5119717;28;20208;-63
2021/10/03 14:19:17;;;;;;;2.57;1.30;;;;;;;;;;5119637;28;20571;-63
2021/10/03 14:21:45;;;;;;;4.00;2.03;;;;;;;;;;5119660;28;20219;-62
2021/10/03 14:24:13;;;;;;;4.33;1.50;;;;;;;;;;5120062;28;20239;-63
2021/10/03 14:26:41;;;;;;;1.53;1.00;;;;;;;;;;5117735;28;20268;-62
2021/10/03 14:29:09;;;;;;;5.03;1.50;;;;;;;;;;5119811;28;20292;-63
2021/10/03 14:31:37;;;;;;;4.70;2.03;;;;;;;;;;5119712;28;20271;-62
2021/10/03 14:34:05;;;;;;;5.17;1.30;;;;;;;;;;5119625;28;20567;-63
2021/10/03 14:36:34;;;;;;;2.17;1.57;;;;;;;;;;5119942;28;20236;-63
2021/10/03 14:39:03;;;;;;;5.40;1.50;;;;;;;;;;5119431;28;20564;-62
2021/10/03 14:41:31;;;;;;;4.00;1.30;;;;;;;;;;5119304;28;20211;-63
2021/10/03 14:43:59;;;;;;;2.07;1.13;;;;;;;;;;5119307;28;20228;-63
2021/10/03 14:46:27;;;;;;;4.57;1.70;;;;;;;;;;5118897;28;20798;-63
2021/10/03 14:48:55;;;;;;;3.83;1.50;;;;;;;;;;5119372;28;20236;-62
2021/10/03 14:51:23;;;;;;;4.43;1.67;;;;;;;;;;5119098;28;20327;-63
2021/10/03 14:53:52;;;;;;;2.77;1.00;;;;;;;;;;5119414;28;20711;-63
2021/10/03 14:56:20;;;;;;;2.40;1.17;;;;;;;;;;5119177;28;20208;-63